createdAt,value
2019-05-01T00:00:59.595Z,19.80
2019-05-01T00:03:36.098Z,17.70
2019-05-01T00:06:03.947Z,14.47
2019-05-01T00:08:29.882Z,14.63
2019-05-01T00:10:55.731Z,17.67
2019-05-01T00:13:22.162Z,20.70
2019-05-01T00:15:49.710Z,19.60
2019-05-01T00:18:15.544Z,17.17
2019-05-01T00:20:41.409Z,20.20
2019-05-01T00:23:07.311Z,15.67
2019-05-01T00:25:33.146Z,17.80
2019-05-01T00:27:58.991Z,18.67
2019-05-01T00:30:29.987Z,18.53
2019-05-01T00:32:53.083Z,18.50
2019-05-01T00:35:18.919Z,16.17
2019-05-01T00:37:44.740Z,19.90
2019-05-01T00:40:10.798Z,17.10
2019-05-01T00:42:36.640Z,19.00
2019-05-01T00:45:04.787Z,21.53
2019-05-01T00:47:30.606Z,18.03
2019-05-01T00:49:56.533Z,20.40
2019-05-01T00:52:22.420Z,19.10
2019-05-01T00:54:50.186Z,18.97
2019-05-01T00:57:34.743Z,22.60
2019-05-01T01:00:08.025Z,22.03
2019-05-01T01:02:35.867Z,19.37
2019-05-01T01:05:01.702Z,19.43
2019-05-01T01:07:27.543Z,18.97
2019-05-01T01:09:53.471Z,21.30
2019-05-01T01:12:19.298Z,20.00
2019-05-01T01:14:45.159Z,21.23
2019-05-01T01:17:11.017Z,20.63
2019-05-01T01:19:36.859Z,20.57
2019-05-01T01:22:02.690Z,22.23
2019-05-01T01:24:28.545Z,22.43
2019-05-01T01:26:54.487Z,22.47
2019-05-01T01:29:20.322Z,22.10
2019-05-01T01:31:46.161Z,22.67
2019-05-01T01:34:12.012Z,21.33
2019-05-01T01:36:37.895Z,29.47
2019-05-01T01:39:05.095Z,23.73
2019-05-01T01:41:31.025Z,23.67
2019-05-01T01:44:10.887Z,28.70
2019-05-01T01:46:38.945Z,21.97
2019-05-01T01:49:04.770Z,24.47
2019-05-01T01:51:30.619Z,21.20
2019-05-01T01:53:56.796Z,21.53
2019-05-01T01:56:22.653Z,26.20
2019-05-01T01:58:48.789Z,23.63
2019-05-01T02:01:31.401Z,24.20
2019-05-01T02:04:01.996Z,24.13
2019-05-01T02:06:27.837Z,23.70
2019-05-01T02:08:56.764Z,23.97
2019-05-01T02:11:21.537Z,24.37
2019-05-01T02:13:47.566Z,26.67
2019-05-01T02:16:13.408Z,24.83
2019-05-01T02:18:39.259Z,24.17
2019-05-01T02:21:05.195Z,35.90
2019-05-01T02:23:31.014Z,24.50
2019-05-01T02:25:56.845Z,28.50
2019-05-01T02:28:30.934Z,42.60
2019-05-01T02:31:26.977Z,27.13
2019-05-01T02:33:46.361Z,25.97
2019-05-01T02:36:13.998Z,29.83
2019-05-01T02:38:40.242Z,25.57
2019-05-01T02:41:07.730Z,28.27
2019-05-01T02:43:34.879Z,25.97
2019-05-01T02:46:01.599Z,30.00
2019-05-01T02:48:29.824Z,30.53
2019-05-01T02:50:57.843Z,28.70
2019-05-01T02:53:24.080Z,32.10
2019-05-01T02:56:09.061Z,30.30
2019-05-01T02:58:35.075Z,31.17
2019-05-01T03:01:00.932Z,31.13
2019-05-01T03:03:26.983Z,33.40
2019-05-01T03:05:53.011Z,37.27
2019-05-01T03:08:18.879Z,28.63
2019-05-01T03:10:44.716Z,31.67
2019-05-01T03:13:10.852Z,33.27
2019-05-01T03:15:36.785Z,31.80
2019-05-01T03:18:04.560Z,32.27
2019-05-01T03:20:49.163Z,29.67
2019-05-01T03:23:26.752Z,31.37
2019-05-01T03:25:52.687Z,31.97
2019-05-01T03:28:18.653Z,35.33
2019-05-01T03:30:44.593Z,31.43
2019-05-01T03:33:10.445Z,31.40
2019-05-01T03:35:36.295Z,33.07
2019-05-01T03:38:02.447Z,31.47
2019-05-01T03:40:28.398Z,35.67
2019-05-01T03:42:54.451Z,35.50
2019-05-01T03:45:20.279Z,41.07
2019-05-01T03:47:46.168Z,34.53
2019-05-01T03:50:12.159Z,40.10
2019-05-01T03:52:38.027Z,35.30
2019-05-01T03:55:03.896Z,34.80
2019-05-01T03:57:29.707Z,34.67
2019-05-01T03:59:55.646Z,36.97
2019-05-01T04:02:39.345Z,33.93
2019-05-01T04:05:05.311Z,34.90
2019-05-01T04:07:31.239Z,35.13
2019-05-01T04:09:57.303Z,43.83
2019-05-01T04:12:23.215Z,35.07
2019-05-01T04:14:49.052Z,35.57
2019-05-01T04:17:16.834Z,34.47
2019-05-01T04:19:42.715Z,39.33
2019-05-01T04:22:12.570Z,37.77
2019-05-01T04:24:38.905Z,48.47
2019-05-01T04:27:06.811Z,34.83
2019-05-01T04:29:34.588Z,35.80
2019-05-01T04:32:03.035Z,37.27
2019-05-01T04:34:33.894Z,36.77
2019-05-01T04:37:07.836Z,37.03
2019-05-01T04:39:34.065Z,37.43
2019-05-01T04:41:59.892Z,40.93
2019-05-01T04:44:26.069Z,36.90
2019-05-01T04:46:53.582Z,37.00
2019-05-01T04:49:19.740Z,34.57
2019-05-01T04:51:45.585Z,39.90
2019-05-01T04:54:11.770Z,41.10
2019-05-01T04:56:37.885Z,37.63
2019-05-01T04:59:03.729Z,42.10
2019-05-01T05:01:31.461Z,38.23
2019-05-01T05:03:57.475Z,40.70
2019-05-01T05:06:23.435Z,53.00
2019-05-01T05:08:49.329Z,33.87
2019-05-01T05:11:17.215Z,57.63
2019-05-01T05:14:01.579Z,63.83
2019-05-01T05:16:44.288Z,62.33
2019-05-01T05:19:10.435Z,53.23
2019-05-01T05:21:36.261Z,47.60
2019-05-01T05:24:02.092Z,60.43
2019-05-01T05:26:27.945Z,56.53
2019-05-01T05:28:54.805Z,78.07
2019-05-01T05:31:22.675Z,61.83
2019-05-01T05:33:48.711Z,56.00
2019-05-01T05:36:15.929Z,74.30
2019-05-01T05:38:45.275Z,69.20
2019-05-01T05:41:11.841Z,66.10
2019-05-01T05:43:37.907Z,64.27
2019-05-01T05:46:04.446Z,66.87
2019-05-01T05:48:30.283Z,66.97
2019-05-01T05:51:17.088Z,59.67
2019-05-01T05:53:46.388Z,60.07
2019-05-01T05:56:15.628Z,54.87
2019-05-01T06:01:39.501Z,58.23
2019-05-01T06:04:08.652Z,62.20
2019-05-01T06:06:37.101Z,56.10
2019-05-01T06:09:04.335Z,63.67
2019-05-01T06:11:49.324Z,59.20
2019-05-01T06:14:34.974Z,73.27
2019-05-01T06:17:15.056Z,66.90
2019-05-01T06:19:45.989Z,55.00
2019-05-01T06:22:15.247Z,62.40
2019-05-01T06:24:43.071Z,66.73
2019-05-01T06:27:13.720Z,61.87
2019-05-01T06:29:37.585Z,71.60
2019-05-01T06:32:03.441Z,55.97
2019-05-01T06:34:29.825Z,62.20
2019-05-01T06:36:55.868Z,83.50
2019-05-01T06:39:22.203Z,48.60
2019-05-01T06:41:48.475Z,51.87
2019-05-01T06:44:16.295Z,53.53
2019-05-01T06:46:47.342Z,56.63
2019-05-01T06:49:29.429Z,61.60
2019-05-01T06:51:56.513Z,77.70
2019-05-01T06:54:23.720Z,58.33
2019-05-01T06:56:50.274Z,61.43
2019-05-01T06:59:16.499Z,61.87
2019-05-01T07:01:43.314Z,60.87
2019-05-01T07:04:09.397Z,60.07
2019-05-01T07:06:35.276Z,67.90
2019-05-01T07:09:02.371Z,65.47
2019-05-01T07:14:56.386Z,68.10
2019-05-01T07:17:22.339Z,104.73
2019-05-01T07:19:59.006Z,53.60
2019-05-01T07:22:24.874Z,58.70
2019-05-01T07:24:50.807Z,56.10
2019-05-01T07:27:18.809Z,57.63
2019-05-01T07:29:46.695Z,59.10
2019-05-01T07:32:14.995Z,69.43
2019-05-01T07:34:40.514Z,66.90
2019-05-01T07:37:08.559Z,59.67
2019-05-01T07:39:34.414Z,60.47
2019-05-01T07:42:19.307Z,61.77
2019-05-01T07:44:47.368Z,67.37
2019-05-01T07:47:15.276Z,54.17
2019-05-01T07:49:54.785Z,71.50
2019-05-01T07:52:21.524Z,75.30
2019-05-01T07:54:47.855Z,54.30
2019-05-01T07:57:14.894Z,71.63
2019-05-01T07:59:40.778Z,74.23
2019-05-01T08:02:08.720Z,59.43
2019-05-01T08:04:36.499Z,52.83
2019-05-01T08:07:02.606Z,88.77
2019-05-01T08:09:28.610Z,52.80
2019-05-01T08:11:54.474Z,65.90
2019-05-01T08:14:20.459Z,60.90
2019-05-01T08:16:46.674Z,57.87
2019-05-01T08:19:14.548Z,69.50
2019-05-01T08:21:42.408Z,50.30
2019-05-01T08:24:08.851Z,58.33
2019-05-01T08:26:34.810Z,52.77
2019-05-01T08:29:18.986Z,54.47
2019-05-01T08:31:49.663Z,47.43
2019-05-01T08:34:26.613Z,51.20
2019-05-01T08:36:52.947Z,49.90
2019-05-01T08:39:18.869Z,50.03
2019-05-01T08:41:44.834Z,75.40
2019-05-01T08:44:10.770Z,46.53
2019-05-01T08:46:38.518Z,55.83
2019-05-01T08:49:11.398Z,53.83
2019-05-01T08:51:36.767Z,47.30
2019-05-01T08:54:02.953Z,48.50
2019-05-01T08:56:28.774Z,50.40
2019-05-01T08:58:54.683Z,54.23
2019-05-01T09:01:20.607Z,51.93
2019-05-01T09:03:49.697Z,51.53
2019-05-01T09:06:14.290Z,42.77
2019-05-01T09:08:40.211Z,41.67
2019-05-01T09:11:06.036Z,54.83
2019-05-01T09:13:31.897Z,74.47
2019-05-01T09:16:00.122Z,45.23
2019-05-01T09:18:26.165Z,119.13
2019-05-01T09:20:54.049Z,59.00
2019-05-01T09:23:19.983Z,132.53
2019-05-01T09:25:47.729Z,50.57
2019-05-01T09:28:35.948Z,51.47
2019-05-01T09:31:04.187Z,78.57
2019-05-01T09:33:30.767Z,80.33
2019-05-01T09:35:58.082Z,54.23
2019-05-01T09:38:24.014Z,90.63
2019-05-01T09:40:49.879Z,97.07
2019-05-01T09:43:15.973Z,81.87
2019-05-01T09:45:41.882Z,48.93
2019-05-01T09:48:08.523Z,50.27
2019-05-01T09:50:36.311Z,44.48
2019-05-01T09:53:09.684Z,52.43
2019-05-01T09:55:40.199Z,58.68
2019-05-01T09:58:06.042Z,50.07
2019-05-01T10:00:32.755Z,51.80
2019-05-01T10:02:58.692Z,52.47
2019-05-01T10:05:28.965Z,83.07
2019-05-01T10:07:52.633Z,52.55
2019-05-01T10:10:18.531Z,60.63
2019-05-01T10:12:47.164Z,52.20
2019-05-01T10:15:14.223Z,58.30
2019-05-01T10:17:40.145Z,66.20
2019-05-01T10:20:06.563Z,91.55
2019-05-01T10:22:32.969Z,63.90
2019-05-01T10:25:01.263Z,54.67
2019-05-01T10:27:30.791Z,73.20
2019-05-01T10:30:15.465Z,46.75
2019-05-01T10:32:43.218Z,44.35
2019-05-01T10:35:14.143Z,42.98
2019-05-01T10:37:39.989Z,73.25
2019-05-01T10:40:07.134Z,108.57
2019-05-01T10:42:32.962Z,55.37
2019-05-01T10:44:59.055Z,73.22
2019-05-01T10:47:34.204Z,80.85
2019-05-01T10:50:00.273Z,90.38
2019-05-01T10:52:26.164Z,43.25
2019-05-01T10:54:52.127Z,46.58
2019-05-01T10:57:19.973Z,47.23
2019-05-01T10:59:45.937Z,51.73
2019-05-01T11:02:17.518Z,44.75
2019-05-01T11:04:43.463Z,58.25
2019-05-01T11:07:09.319Z,49.50
2019-05-01T11:09:35.166Z,39.70
2019-05-01T11:12:00.992Z,42.33
2019-05-01T11:14:26.867Z,73.97
2019-05-01T11:16:52.697Z,42.53
2019-05-01T11:19:18.864Z,61.33
2019-05-01T11:21:45.227Z,62.60
2019-05-01T11:24:11.078Z,53.05
2019-05-01T11:26:36.935Z,34.80
2019-05-01T11:29:03.634Z,48.55
2019-05-01T11:31:47.960Z,51.65
2019-05-01T11:34:24.815Z,99.00
2019-05-01T11:37:10.860Z,70.25
2019-05-01T11:39:42.132Z,39.35
2019-05-01T11:42:09.943Z,31.77
2019-05-01T11:44:35.785Z,31.68
2019-05-01T11:47:01.661Z,34.58
2019-05-01T11:49:27.788Z,25.43
2019-05-01T11:51:53.751Z,33.08
2019-05-01T11:54:20.006Z,30.43
2019-05-01T11:56:45.926Z,31.02
2019-05-01T11:59:12.164Z,28.45
2019-05-01T12:01:38.164Z,31.95
2019-05-01T12:04:04.059Z,26.48
2019-05-01T12:06:30.052Z,30.40
2019-05-01T12:08:56.015Z,32.03
2019-05-01T12:11:24.179Z,30.12
2019-05-01T12:13:50.185Z,22.00
2019-05-01T12:16:18.000Z,20.65
2019-05-01T12:18:43.910Z,22.52
2019-05-01T12:21:09.885Z,29.82
2019-05-01T12:23:35.752Z,19.95
2019-05-01T12:26:01.699Z,20.23
2019-05-01T12:28:27.603Z,29.18
2019-05-01T12:30:53.597Z,30.25
2019-05-01T12:33:19.475Z,29.37
2019-05-01T12:35:47.412Z,22.32
2019-05-01T12:38:13.359Z,27.35
2019-05-01T12:40:39.559Z,36.00
2019-05-01T12:43:05.777Z,33.55
2019-05-01T12:45:31.650Z,39.18
2019-05-01T12:47:59.488Z,46.25
2019-05-01T12:50:25.382Z,38.75
2019-05-01T12:52:59.102Z,63.90
2019-05-01T12:55:43.892Z,81.97
2019-05-01T12:58:09.855Z,61.80
2019-05-01T13:00:39.150Z,32.20
2019-05-01T13:03:05.029Z,69.58
2019-05-01T13:05:31.086Z,36.93
2019-05-01T13:07:58.962Z,54.08
2019-05-01T13:10:24.847Z,33.83
2019-05-01T13:12:50.805Z,113.62
2019-05-01T13:15:16.691Z,47.45
2019-05-01T13:17:42.542Z,27.75
2019-05-01T13:20:08.628Z,29.57
2019-05-01T13:22:34.489Z,37.55
2019-05-01T13:25:00.328Z,31.15
2019-05-01T13:27:28.067Z,42.25
2019-05-01T13:29:55.958Z,47.17
2019-05-01T13:32:32.633Z,45.43
2019-05-01T13:34:58.483Z,30.45
2019-05-01T13:37:24.339Z,40.58
2019-05-01T13:39:50.180Z,28.95
2019-05-01T13:42:16.251Z,38.33
2019-05-01T13:44:42.474Z,25.23
2019-05-01T13:47:08.472Z,24.25
2019-05-01T13:49:34.408Z,26.30
2019-05-01T13:52:00.251Z,27.25
2019-05-01T13:54:26.090Z,31.45
2019-05-01T13:56:51.919Z,23.95
2019-05-01T13:59:17.799Z,28.35
2019-05-01T14:01:43.727Z,32.40
2019-05-01T14:04:11.087Z,29.55
2019-05-01T14:06:37.023Z,21.40
2019-05-01T14:09:05.698Z,22.55
2019-05-01T14:11:31.614Z,26.80
2019-05-01T14:13:57.542Z,15.05
2019-05-01T14:16:23.699Z,22.02
2019-05-01T14:18:49.567Z,24.27
2019-05-01T14:21:20.069Z,15.90
2019-05-01T14:23:48.035Z,53.02
2019-05-01T14:26:14.071Z,89.65
2019-05-01T14:28:40.089Z,27.65
2019-05-01T14:31:06.669Z,62.83
2019-05-01T14:33:32.683Z,70.08
2019-05-01T14:35:58.737Z,42.13
2019-05-01T14:38:24.826Z,89.60
2019-05-01T14:40:51.031Z,95.35
2019-05-01T14:43:18.426Z,107.25
2019-05-01T14:45:44.444Z,39.55
2019-05-01T14:48:10.523Z,86.32
2019-05-01T14:50:36.659Z,97.75
2019-05-01T14:53:02.859Z,43.25
2019-05-01T14:55:28.920Z,43.10
2019-05-01T14:57:54.967Z,31.12
2019-05-01T15:00:21.764Z,55.10
2019-05-01T15:02:47.800Z,29.98
2019-05-01T15:05:13.942Z,43.40
2019-05-01T15:07:43.751Z,47.67
2019-05-01T15:10:08.537Z,28.67
2019-05-01T15:12:34.636Z,22.87
2019-05-01T15:15:20.840Z,48.92
2019-05-01T15:17:49.171Z,27.40
2019-05-01T15:20:15.360Z,58.83
2019-05-01T15:22:41.355Z,21.37
2019-05-01T15:25:07.605Z,48.92
2019-05-01T15:27:33.740Z,35.50
2019-05-01T15:29:59.745Z,36.25
2019-05-01T15:32:25.794Z,42.67
2019-05-01T15:34:51.848Z,51.05
2019-05-01T15:37:17.888Z,28.83
2019-05-01T15:39:46.084Z,62.40
2019-05-01T15:42:14.147Z,39.65
2019-05-01T15:44:42.066Z,43.42
2019-05-01T15:47:08.084Z,54.53
2019-05-01T15:49:34.112Z,26.57
2019-05-01T15:52:00.227Z,30.97
2019-05-01T15:54:26.229Z,36.03
2019-05-01T15:56:52.279Z,73.15
2019-05-01T15:59:18.394Z,39.65
2019-05-01T16:01:44.253Z,24.40
2019-05-01T16:04:10.402Z,43.05
2019-05-01T16:06:36.460Z,30.72
2019-05-01T16:09:04.976Z,21.20
2019-05-01T16:11:41.915Z,31.90
2019-05-01T16:14:07.962Z,37.70
2019-05-01T16:16:33.963Z,99.30
2019-05-01T16:19:00.019Z,30.35
2019-05-01T16:21:25.947Z,48.48
2019-05-01T16:23:51.966Z,32.42
2019-05-01T16:26:17.907Z,53.55
2019-05-01T16:28:43.889Z,44.03
2019-05-01T16:31:10.061Z,62.23
2019-05-01T16:33:41.691Z,84.40
2019-05-01T16:36:07.816Z,56.02
2019-05-01T16:38:50.809Z,132.78
2019-05-01T16:41:16.798Z,40.50
2019-05-01T16:43:42.728Z,57.85
2019-05-01T16:46:08.819Z,106.75
2019-05-01T16:48:34.884Z,81.12
2019-05-01T16:51:00.926Z,108.40
2019-05-01T16:53:27.094Z,71.53
2019-05-01T16:55:56.496Z,127.92
2019-05-01T16:58:24.895Z,141.50
2019-05-01T17:00:56.973Z,155.30
2019-05-01T17:03:36.793Z,50.03
2019-05-01T17:06:04.868Z,58.28
2019-05-01T17:08:54.833Z,119.22
2019-05-01T17:11:23.826Z,96.05
2019-05-01T17:13:50.082Z,125.60
2019-05-01T17:16:16.234Z,89.28
2019-05-01T17:18:42.431Z,66.45
2019-05-01T17:21:08.807Z,96.22
2019-05-01T17:23:35.333Z,188.60
2019-05-01T17:26:01.380Z,101.80
2019-05-01T17:28:27.713Z,152.10
2019-05-01T17:30:55.773Z,164.20
2019-05-01T17:33:22.184Z,65.42
2019-05-01T17:35:48.409Z,153.70
2019-05-01T17:38:14.605Z,134.50
2019-05-01T17:40:40.748Z,78.33
2019-05-01T17:43:08.158Z,159.10
2019-05-01T17:45:36.656Z,169.37
2019-05-01T17:48:03.218Z,87.50
2019-05-01T17:50:29.165Z,83.15
2019-05-01T17:52:55.250Z,76.45
2019-05-01T17:55:21.442Z,69.07
2019-05-01T17:57:47.593Z,132.27
2019-05-01T18:00:32.335Z,100.65
2019-05-01T18:03:17.052Z,146.75
2019-05-01T18:05:50.795Z,79.67
2019-05-01T18:08:16.852Z,91.28
2019-05-01T18:10:42.831Z,61.80
2019-05-01T18:13:08.856Z,45.08
2019-05-01T18:15:34.934Z,79.32
2019-05-01T18:18:00.949Z,66.42
2019-05-01T18:20:27.037Z,50.20
2019-05-01T18:22:58.045Z,131.60
2019-05-01T18:25:33.258Z,131.15
2019-05-01T18:28:04.339Z,90.22
2019-05-01T18:30:32.277Z,108.03
2019-05-01T18:32:58.143Z,37.90
2019-05-01T18:35:24.003Z,26.35
2019-05-01T18:37:51.735Z,28.00
2019-05-01T18:40:19.782Z,75.50
2019-05-01T18:42:45.767Z,100.55
2019-05-01T18:45:35.384Z,190.93
2019-05-01T18:48:01.429Z,70.42
2019-05-01T18:50:27.667Z,144.90
2019-05-01T18:52:53.861Z,113.35
2019-05-01T18:55:19.809Z,89.17
2019-05-01T18:57:45.659Z,26.27
2019-05-01T19:00:11.869Z,19.67
2019-05-01T19:02:39.033Z,22.98
2019-05-01T19:05:08.747Z,29.87
2019-05-01T19:07:35.147Z,16.10
2019-05-01T19:10:01.033Z,39.42
2019-05-01T19:12:26.927Z,43.80
2019-05-01T19:15:00.350Z,29.50
2019-05-01T19:17:25.186Z,27.37
2019-05-01T19:20:58.858Z,149.50
2019-05-01T19:22:30.683Z,133.72
2019-05-01T19:24:57.267Z,40.47
2019-05-01T19:27:24.429Z,31.17
2019-05-01T19:29:51.038Z,31.67
2019-05-01T19:32:19.009Z,31.40
2019-05-01T19:34:44.945Z,27.87
2019-05-01T19:37:11.157Z,36.90
2019-05-01T19:39:43.553Z,21.53
2019-05-01T19:42:04.864Z,14.13
2019-05-01T19:44:30.716Z,46.70
2019-05-01T19:47:00.401Z,271.33
2019-05-01T19:49:39.549Z,208.67
2019-05-01T19:52:10.485Z,72.73
2019-05-01T19:54:36.461Z,30.90
2019-05-01T19:57:02.446Z,15.70
2019-05-01T19:59:28.314Z,14.53
2019-05-01T20:01:54.465Z,23.00
2019-05-01T20:04:20.385Z,20.33
2019-05-01T20:06:49.461Z,16.00
2019-05-01T20:09:15.757Z,13.87
2019-05-01T20:11:42.911Z,14.07
2019-05-01T20:14:15.347Z,20.47
2019-05-01T20:16:54.916Z,67.67
2019-05-01T20:19:21.578Z,67.93
2019-05-01T20:21:47.494Z,47.50
2019-05-01T20:24:13.375Z,20.60
2019-05-01T20:26:39.283Z,23.03
2019-05-01T20:29:05.138Z,19.03
2019-05-01T20:31:32.887Z,15.60
2019-05-01T20:33:58.726Z,14.73
2019-05-01T20:36:24.707Z,18.20
2019-05-01T20:38:50.566Z,21.03
2019-05-01T20:41:18.094Z,22.27
2019-05-01T20:43:45.421Z,29.63
2019-05-01T20:46:11.475Z,20.03
2019-05-01T20:48:37.327Z,15.10
2019-05-01T20:51:03.393Z,13.40
2019-05-01T20:53:29.250Z,25.50
2019-05-01T20:56:02.680Z,28.50
2019-05-01T20:58:28.534Z,19.90
2019-05-01T21:00:56.445Z,19.83
2019-05-01T21:03:22.280Z,21.53
2019-05-01T21:05:52.904Z,26.27
2019-05-01T21:08:29.053Z,19.90
2019-05-01T21:10:55.887Z,22.07
2019-05-01T21:13:23.284Z,18.93
2019-05-01T21:15:49.635Z,17.77
2019-05-01T21:18:15.495Z,18.60
2019-05-01T21:20:41.422Z,15.67
2019-05-01T21:23:10.569Z,19.90
2019-05-01T21:25:35.115Z,29.47
2019-05-01T21:28:01.071Z,22.57
2019-05-01T21:30:26.991Z,26.67
2019-05-01T21:32:54.213Z,19.37
2019-05-01T21:35:20.099Z,23.17
2019-05-01T21:37:45.950Z,14.30
2019-05-01T21:40:12.902Z,21.97
2019-05-01T21:42:38.930Z,16.10
2019-05-01T21:45:05.678Z,19.47
2019-05-01T21:47:33.424Z,35.30
2019-05-01T21:49:59.240Z,26.90
2019-05-01T21:52:26.809Z,25.97
2019-05-01T21:54:55.281Z,20.33
2019-05-01T21:57:20.572Z,20.30
2019-05-01T21:59:48.119Z,20.77
2019-05-01T22:02:14.276Z,43.60
2019-05-01T22:04:40.150Z,24.07
2019-05-01T22:07:07.127Z,19.30
2019-05-01T22:09:33.359Z,21.80
2019-05-01T22:11:59.178Z,25.63
2019-05-01T22:14:31.213Z,27.60
2019-05-01T22:16:56.892Z,22.63
2019-05-01T22:19:24.340Z,25.40
2019-05-01T22:21:54.742Z,21.37
2019-05-01T22:24:33.933Z,22.70
2019-05-01T22:27:08.306Z,35.97
2019-05-01T22:29:36.047Z,20.93
2019-05-01T22:32:03.983Z,21.17
2019-05-01T22:34:40.634Z,24.30
2019-05-01T22:37:06.463Z,20.33
2019-05-01T22:39:34.310Z,24.07
2019-05-01T22:42:00.173Z,29.30
2019-05-01T22:44:26.012Z,28.97
2019-05-01T22:46:51.854Z,25.90
2019-05-01T22:49:17.702Z,29.17
2019-05-01T22:51:43.582Z,20.57
2019-05-01T22:54:09.488Z,22.37
2019-05-01T22:56:35.440Z,21.97
2019-05-01T22:59:01.698Z,24.13
2019-05-01T23:01:27.622Z,28.40
2019-05-01T23:03:58.245Z,26.37
2019-05-01T23:06:24.112Z,28.97
2019-05-01T23:08:49.981Z,28.77
2019-05-01T23:11:20.283Z,31.17
2019-05-01T23:13:43.827Z,22.93
2019-05-01T23:16:11.585Z,24.53
2019-05-01T23:18:37.432Z,21.87
2019-05-01T23:21:03.584Z,25.67
2019-05-01T23:23:29.396Z,26.93
2019-05-01T23:25:55.234Z,25.23
2019-05-01T23:28:21.078Z,25.67
2019-05-01T23:30:46.911Z,26.50
2019-05-01T23:33:12.772Z,23.53
2019-05-01T23:35:39.659Z,22.47
2019-05-01T23:38:05.486Z,29.57
2019-05-01T23:40:31.334Z,26.57
2019-05-01T23:42:57.191Z,22.23
2019-05-01T23:45:23.111Z,30.03
2019-05-01T23:47:48.992Z,25.37
2019-05-01T23:50:14.919Z,29.80
2019-05-01T23:52:40.790Z,29.33
2019-05-01T23:55:06.787Z,21.80
2019-05-01T23:57:32.633Z,30.70
2019-05-01T23:59:58.480Z,29.60
